Time;durP1;ratioP1;P1;durP2;ratioP2;P2;SDS_P1;SDS_P2;PMS_P1;PMS_P2;Temp;Humidity;BMP_temperature;BMP_pressure;BME280_temperature;BME280_humidity;BME280_pressure;Samples;Min_cycle;Max_cycle;Signal;HPM_P1;HPM_P2
2022/03/26 00:00:46;;;;;;;;;;;9.40;99.90;;;;;;5008032;28;20360;-74
2022/03/26 00:03:13;;;;;;;;;;;9.40;99.90;;;;;;5008708;28;19926;-72
2022/03/26 00:05:41;;;;;;;;;;;9.40;99.90;;;;;;5008248;28;19996;-73
2022/03/26 00:08:09;;;;;;;;;;;9.30;99.90;;;;;;5008708;28;20006;-74
2022/03/26 00:10:36;;;;;;;;;;;9.30;99.90;;;;;;5007929;28;19980;-74
2022/03/26 00:13:03;;;;;;;;;;;9.20;99.90;;;;;;5007884;28;19976;-74
2022/03/26 00:15:30;;;;;;;;;;;9.10;99.90;;;;;;5008256;28;19926;-73
2022/03/26 00:17:57;;;;;;;;;;;9.00;99.90;;;;;;5008201;28;19933;-75
2022/03/26 00:20:23;;;;;;;;;;;8.90;99.90;;;;;;5008171;28;20340;-73
2022/03/26 00:22:50;;;;;;;;;;;8.90;99.90;;;;;;5008052;28;19926;-74
2022/03/26 00:25:18;;;;;;;;;;;8.80;99.90;;;;;;5007627;28;19984;-74
2022/03/26 00:27:45;;;;;;;;;;;8.80;99.90;;;;;;5007773;28;19981;-74
2022/03/26 00:30:12;;;;;;;;;;;8.70;99.90;;;;;;5007705;28;19980;-73
2022/03/26 00:32:39;;;;;;;;;;;8.70;99.90;;;;;;5007908;28;19929;-74
2022/03/26 00:35:09;;;;;;;;;;;8.70;99.90;;;;;;4991124;28;20398;-74
2022/03/26 00:37:36;;;;;;;;;;;8.60;99.90;;;;;;5007474;28;20452;-74
2022/03/26 00:40:03;;;;;;;;;;;8.60;99.90;;;;;;4991348;28;19926;-74
2022/03/26 00:42:31;;;;;;;;;;;8.70;99.90;;;;;;5007702;28;19929;-74
2022/03/26 00:44:58;;;;;;;;;;;8.70;99.90;;;;;;5007459;28;19926;-74
2022/03/26 00:47:25;;;;;;;;;;;8.60;99.90;;;;;;5007665;28;19925;-73
2022/03/26 00:49:54;;;;;;;;;;;8.50;99.90;;;;;;5007204;28;19932;-74
2022/03/26 00:52:20;;;;;;;;;;;8.40;99.90;;;;;;5007211;28;19957;-74
2022/03/26 00:54:47;;;;;;;;;;;8.40;99.90;;;;;;5007697;28;19984;-74
2022/03/26 00:57:16;;;;;;;;;;;8.40;99.90;;;;;;5007397;28;19984;-73
2022/03/26 00:59:45;;;;;;;;;;;8.40;99.90;;;;;;5007417;28;19926;-73
2022/03/26 01:02:12;;;;;;;;;;;8.40;99.90;;;;;;5006296;28;19925;-74
2022/03/26 01:04:39;;;;;;;;;;;8.40;99.90;;;;;;5007086;28;19926;-74
2022/03/26 01:07:06;;;;;;;;;;;8.40;99.90;;;;;;5007321;28;19926;-74
2022/03/26 01:09:33;;;;;;;;;;;8.30;99.90;;;;;;5007221;28;19926;-72
2022/03/26 01:12:00;;;;;;;;;;;8.20;99.90;;;;;;5006907;28;19926;-73
2022/03/26 01:14:27;;;;;;;;;;;8.20;99.90;;;;;;5006555;28;19988;-73
2022/03/26 01:16:55;;;;;;;;;;;8.10;99.90;;;;;;5007159;28;20398;-74
2022/03/26 01:19:22;;;;;;;;;;;8.00;99.90;;;;;;5007138;28;19933;-74
2022/03/26 01:21:48;;;;;;;;;;;7.90;99.90;;;;;;5006814;28;19953;-74
2022/03/26 01:24:15;;;;;;;;;;;7.80;99.90;;;;;;5006939;28;19980;-74
2022/03/26 01:26:43;;;;;;;;;;;7.50;99.90;;;;;;5006981;28;20340;-73
2022/03/26 01:29:10;;;;;;;;;;;7.30;99.90;;;;;;5007308;28;19925;-73
2022/03/26 01:31:37;;;;;;;;;;;7.10;99.90;;;;;;5006902;28;19929;-73
2022/03/26 01:34:05;;;;;;;;;;;6.90;99.90;;;;;;4990477;28;20017;-73
2022/03/26 01:36:32;;;;;;;;;;;6.80;99.90;;;;;;5007110;28;19926;-73
2022/03/26 01:38:59;;;;;;;;;;;6.70;99.90;;;;;;5007201;28;19925;-72
2022/03/26 01:41:26;;;;;;;;;;;6.60;99.90;;;;;;5006324;28;19930;-73
2022/03/26 01:43:53;;;;;;;;;;;6.50;99.90;;;;;;4990382;28;19929;-74
2022/03/26 01:46:20;;;;;;;;;;;6.40;99.90;;;;;;5007138;28;19926;-74
2022/03/26 01:48:47;;;;;;;;;;;6.40;99.90;;;;;;5006920;28;19926;-71
2022/03/26 01:51:16;;;;;;;;;;;6.30;99.90;;;;;;5006821;28;19976;-73
2022/03/26 01:53:44;;;;;;;;;;;6.20;99.90;;;;;;5007055;28;19972;-74
2022/03/26 01:56:11;;;;;;;;;;;6.20;99.90;;;;;;4990682;28;19926;-73
2022/03/26 01:58:38;;;;;;;;;;;6.10;99.90;;;;;;5006494;28;19937;-73
2022/03/26 02:01:05;;;;;;;;;;;6.10;99.90;;;;;;4990184;28;19941;-73
2022/03/26 02:03:32;;;;;;;;;;;6.00;99.90;;;;;;5005916;28;19933;-71
2022/03/26 02:05:59;;;;;;;;;;;5.90;99.90;;;;;;5006863;28;19925;-73
2022/03/26 02:08:27;;;;;;;;;;;5.80;99.90;;;;;;5006800;28;20338;-73
2022/03/26 02:10:54;;;;;;;;;;;5.70;99.90;;;;;;5006428;28;19937;-73
2022/03/26 02:13:21;;;;;;;;;;;5.60;99.90;;;;;;5005723;28;20381;-73
2022/03/26 02:15:48;;;;;;;;;;;5.50;99.90;;;;;;5006405;28;19930;-73
2022/03/26 02:18:15;;;;;;;;;;;5.50;99.90;;;;;;5006261;28;19926;-73
2022/03/26 02:20:44;;;;;;;;;;;5.40;99.90;;;;;;5006526;28;19930;-74
2022/03/26 02:23:11;;;;;;;;;;;5.40;99.90;;;;;;4990442;28;19933;-73
2022/03/26 02:25:38;;;;;;;;;;;5.40;99.90;;;;;;5006136;28;19930;-73
2022/03/26 02:28:04;;;;;;;;;;;5.40;99.90;;;;;;4995977;28;20346;-73
2022/03/26 02:30:33;;;;;;;;;;;5.40;99.90;;;;;;4995034;28;20345;-72
2022/03/26 02:32:59;;;;;;;;;;;5.40;99.90;;;;;;5003241;28;19933;-73
2022/03/26 02:35:26;;;;;;;;;;;5.40;99.90;;;;;;5002909;28;19931;-73
2022/03/26 02:37:55;;;;;;;;;;;5.30;99.90;;;;;;5002589;28;19926;-73
2022/03/26 02:40:22;;;;;;;;;;;5.30;99.90;;;;;;5003002;28;19976;-73
2022/03/26 02:42:48;;;;;;;;;;;5.30;99.90;;;;;;4970679;28;19930;-73
2022/03/26 02:45:15;;;;;;;;;;;5.40;99.90;;;;;;5002851;28;19933;-75
2022/03/26 02:47:42;;;;;;;;;;;5.40;99.90;;;;;;5003324;28;20357;-72
2022/03/26 02:50:09;;;;;;;;;;;5.40;99.90;;;;;;5003035;28;19926;-73
2022/03/26 02:52:37;;;;;;;;;;;5.40;99.90;;;;;;5005339;28;19930;-73
2022/03/26 02:55:07;;;;;;;;;;;5.40;99.90;;;;;;5006661;28;19969;-74
2022/03/26 02:57:34;;;;;;;;;;;5.30;99.90;;;;;;5007084;28;19926;-73
2022/03/26 03:00:01;;;;;;;;;;;5.30;99.90;;;;;;4974004;28;19926;-73
2022/03/26 03:02:28;;;;;;;;;;;5.30;99.90;;;;;;5007176;28;19934;-73
2022/03/26 03:04:54;;;;;;;;;;;5.30;99.90;;;;;;5006546;28;19927;-72
2022/03/26 03:07:22;;;;;;;;;;;5.30;99.90;;;;;;5006426;28;19926;-74
2022/03/26 03:09:48;;;;;;;;;;;5.30;99.90;;;;;;5006347;28;19930;-73
2022/03/26 03:12:17;;;;;;;;;;;5.20;99.90;;;;;;5006322;28;19926;-73
2022/03/26 03:14:44;;;;;;;;;;;5.20;99.90;;;;;;4973534;28;19929;-73
2022/03/26 03:17:10;;;;;;;;;;;5.20;99.90;;;;;;5006373;28;19953;-73
2022/03/26 03:19:37;;;;;;;;;;;5.10;99.90;;;;;;5006355;28;19968;-73
2022/03/26 03:22:04;;;;;;;;;;;5.10;99.90;;;;;;5006581;28;19926;-72
2022/03/26 03:24:31;;;;;;;;;;;5.00;99.90;;;;;;5005932;28;19926;-74
2022/03/26 03:26:58;;;;;;;;;;;4.90;99.90;;;;;;5006251;28;19930;-73
2022/03/26 03:29:26;;;;;;;;;;;4.80;99.90;;;;;;5005947;28;19937;-71
2022/03/26 03:31:53;;;;;;;;;;;4.80;99.90;;;;;;5006103;28;20369;-73
2022/03/26 03:34:20;;;;;;;;;;;4.70;99.90;;;;;;5006230;28;19933;-73
2022/03/26 03:36:46;;;;;;;;;;;4.60;99.90;;;;;;4973579;28;19933;-73
2022/03/26 03:39:13;;;;;;;;;;;4.40;99.90;;;;;;5005717;28;19926;-73
2022/03/26 03:41:40;;;;;;;;;;;4.30;99.90;;;;;;5005669;28;19933;-73
2022/03/26 03:44:07;;;;;;;;;;;4.20;99.90;;;;;;5005489;28;19999;-73
2022/03/26 03:46:35;;;;;;;;;;;4.10;99.90;;;;;;5006340;28;19938;-73
2022/03/26 03:49:02;;;;;;;;;;;4.10;99.90;;;;;;5005803;28;19926;-73
2022/03/26 03:51:29;;;;;;;;;;;4.00;99.90;;;;;;5005052;28;19977;-71
2022/03/26 03:53:56;;;;;;;;;;;4.00;99.90;;;;;;5005180;28;19926;-72
2022/03/26 03:56:23;;;;;;;;;;;3.90;99.90;;;;;;5005823;28;19960;-72
2022/03/26 03:58:50;;;;;;;;;;;3.90;99.90;;;;;;5002946;28;20037;-72
2022/03/26 04:01:16;;;;;;;;;;;3.90;99.90;;;;;;5005330;28;19927;-73
2022/03/26 04:03:45;;;;;;;;;;;3.80;99.90;;;;;;5005022;28;20291;-73
2022/03/26 04:06:11;;;;;;;;;;;3.80;99.90;;;;;;4973166;28;19930;-73
2022/03/26 04:08:38;;;;;;;;;;;3.70;99.90;;;;;;5005388;28;20353;-72
2022/03/26 04:11:05;;;;;;;;;;;3.70;99.90;;;;;;5005076;28;19985;-72
2022/03/26 04:13:31;;;;;;;;;;;3.70;99.90;;;;;;5005215;28;19926;-71
2022/03/26 04:15:58;;;;;;;;;;;3.70;99.90;;;;;;5005506;28;19977;-72
2022/03/26 04:18:25;;;;;;;;;;;3.60;99.90;;;;;;5005488;28;19926;-73
2022/03/26 04:20:54;;;;;;;;;;;3.60;99.90;;;;;;5005119;28;19926;-73
2022/03/26 04:23:20;;;;;;;;;;;3.50;99.90;;;;;;5005178;28;20008;-72
2022/03/26 04:25:48;;;;;;;;;;;3.50;99.90;;;;;;5004938;28;19930;-72
2022/03/26 04:28:14;;;;;;;;;;;3.50;99.90;;;;;;4972720;28;20393;-73
2022/03/26 04:30:41;;;;;;;;;;;3.60;99.90;;;;;;5005067;28;19930;-73
2022/03/26 04:33:08;;;;;;;;;;;3.60;99.90;;;;;;5005048;28;19937;-71
2022/03/26 04:35:35;;;;;;;;;;;3.60;99.90;;;;;;5004947;28;19933;-72
2022/03/26 04:38:03;;;;;;;;;;;3.60;99.90;;;;;;5004997;28;19977;-71
2022/03/26 04:40:30;;;;;;;;;;;3.60;99.90;;;;;;5005142;28;19926;-72
2022/03/26 04:42:57;;;;;;;;;;;3.60;99.90;;;;;;5004976;28;19926;-72
2022/03/26 04:45:24;;;;;;;;;;;3.50;99.90;;;;;;5004971;28;19930;-72
2022/03/26 04:47:51;;;;;;;;;;;3.40;99.90;;;;;;5005239;28;20053;-71
2022/03/26 04:50:17;;;;;;;;;;;3.40;99.90;;;;;;5004988;28;19930;-72
2022/03/26 04:52:44;;;;;;;;;;;3.40;99.90;;;;;;5005080;28;19926;-73
2022/03/26 04:55:13;;;;;;;;;;;3.40;99.90;;;;;;5004739;28;19934;-71
2022/03/26 04:57:40;;;;;;;;;;;3.40;99.90;;;;;;5005269;28;20040;-72
2022/03/26 05:00:08;;;;;;;;;;;3.30;99.90;;;;;;5004854;28;19972;-73
2022/03/26 05:02:36;;;;;;;;;;;3.40;99.90;;;;;;5004752;28;19961;-71
2022/03/26 05:05:03;;;;;;;;;;;3.40;99.90;;;;;;4972379;28;19977;-73
2022/03/26 05:07:48;;;;;;;;;;;3.30;99.90;;;;;;5004691;28;19938;-72
2022/03/26 05:10:18;;;;;;;;;;;3.30;99.90;;;;;;5004469;28;19970;-72
2022/03/26 05:12:46;;;;;;;;;;;3.40;99.90;;;;;;4972180;28;19930;-73
2022/03/26 05:15:13;;;;;;;;;;;3.30;99.90;;;;;;5003795;28;19926;-73
2022/03/26 05:17:40;;;;;;;;;;;3.30;99.90;;;;;;5004072;28;19930;-73
2022/03/26 05:20:08;;;;;;;;;;;3.20;99.90;;;;;;5003884;28;20032;-72
2022/03/26 05:22:36;;;;;;;;;;;3.20;99.90;;;;;;4971491;28;19926;-72
2022/03/26 05:25:03;;;;;;;;;;;3.20;99.90;;;;;;5004312;28;19926;-73
2022/03/26 05:27:31;;;;;;;;;;;3.30;99.90;;;;;;5004300;28;19930;-72
2022/03/26 05:29:58;;;;;;;;;;;3.20;99.90;;;;;;5004049;28;20353;-72
2022/03/26 05:32:25;;;;;;;;;;;3.20;99.90;;;;;;5003741;28;19926;-73
2022/03/26 05:34:52;;;;;;;;;;;3.20;99.90;;;;;;5003750;28;19934;-72
2022/03/26 05:37:19;;;;;;;;;;;3.20;99.90;;;;;;5003561;28;20464;-73
2022/03/26 05:39:46;;;;;;;;;;;3.20;99.90;;;;;;5003703;28;20362;-72
2022/03/26 05:42:13;;;;;;;;;;;3.20;99.90;;;;;;5003843;28;19933;-73
2022/03/26 05:44:41;;;;;;;;;;;3.20;99.90;;;;;;5003283;28;19926;-72
2022/03/26 05:47:08;;;;;;;;;;;3.20;99.90;;;;;;5003500;28;19933;-74
2022/03/26 05:49:35;;;;;;;;;;;3.20;99.90;;;;;;5003978;28;19932;-73
2022/03/26 05:52:02;;;;;;;;;;;3.20;99.90;;;;;;4971173;28;20421;-73
2022/03/26 05:54:29;;;;;;;;;;;3.30;99.90;;;;;;5003476;28;20302;-73
2022/03/26 05:56:56;;;;;;;;;;;3.30;99.90;;;;;;5003481;28;19926;-71
2022/03/26 05:59:23;;;;;;;;;;;3.30;99.90;;;;;;5003365;28;19929;-74
2022/03/26 06:01:53;;;;;;;;;;;3.30;99.90;;;;;;4975268;28;20322;-71
2022/03/26 06:04:20;;;;;;;;;;;3.30;99.90;;;;;;5011280;28;20400;-71
2022/03/26 06:06:48;;;;;;;;;;;3.30;99.90;;;;;;4995415;28;20368;-73
2022/03/26 06:09:14;;;;;;;;;;;3.30;99.90;;;;;;5026261;28;19975;-74
2022/03/26 06:11:41;;;;;;;;;;;3.30;99.90;;;;;;5013153;28;19937;-73
2022/03/26 06:14:08;;;;;;;;;;;3.30;99.90;;;;;;5003348;28;19926;-75
2022/03/26 06:16:35;;;;;;;;;;;3.40;99.90;;;;;;5003588;28;20333;-74
2022/03/26 06:19:03;;;;;;;;;;;3.40;99.90;;;;;;5006791;28;20024;-74
2022/03/26 06:21:30;;;;;;;;;;;3.40;99.90;;;;;;5005930;28;19937;-74
2022/03/26 06:23:58;;;;;;;;;;;3.40;99.90;;;;;;5006711;28;19926;-74
2022/03/26 06:26:25;;;;;;;;;;;3.40;99.90;;;;;;5007536;28;19926;-74
2022/03/26 06:28:52;;;;;;;;;;;3.50;99.90;;;;;;5010488;28;19971;-75
2022/03/26 06:31:19;;;;;;;;;;;3.50;99.90;;;;;;5010630;28;19926;-74
2022/03/26 06:33:46;;;;;;;;;;;3.60;99.90;;;;;;5010485;28;19930;-73
2022/03/26 06:36:14;;;;;;;;;;;3.70;99.90;;;;;;5009611;28;19973;-72
2022/03/26 06:38:41;;;;;;;;;;;3.70;99.90;;;;;;5021113;28;19929;-73
2022/03/26 06:41:09;;;;;;;;;;;3.80;99.90;;;;;;5009552;28;19926;-73
2022/03/26 06:43:36;;;;;;;;;;;3.80;99.90;;;;;;5009602;28;19926;-73
2022/03/26 06:46:03;;;;;;;;;;;3.90;99.90;;;;;;5009926;28;19930;-73
2022/03/26 06:48:30;;;;;;;;;;;3.90;99.90;;;;;;5026485;28;19926;-73
2022/03/26 06:50:57;;;;;;;;;;;4.00;99.90;;;;;;4993419;28;19926;-74
2022/03/26 06:53:25;;;;;;;;;;;4.10;99.90;;;;;;4993213;28;19934;-73
2022/03/26 06:55:52;;;;;;;;;;;4.20;99.90;;;;;;5006172;28;19934;-74
2022/03/26 06:58:19;;;;;;;;;;;4.30;99.90;;;;;;5025078;28;19926;-73
2022/03/26 07:00:45;;;;;;;;;;;4.50;99.90;;;;;;5009453;28;19926;-73
2022/03/26 07:03:12;;;;;;;;;;;4.60;99.90;;;;;;4993230;28;19926;-75
2022/03/26 07:05:39;;;;;;;;;;;4.70;99.90;;;;;;5025590;28;19980;-75
2022/03/26 07:08:06;;;;;;;;;;;4.80;99.90;;;;;;4993053;28;19925;-74
2022/03/26 07:10:35;;;;;;;;;;;4.90;99.90;;;;;;5025907;28;19926;-74
2022/03/26 07:13:02;;;;;;;;;;;5.10;99.90;;;;;;4993352;28;19977;-74
2022/03/26 07:15:31;;;;;;;;;;;5.20;99.90;;;;;;5025271;28;19929;-74
2022/03/26 07:17:58;;;;;;;;;;;5.30;99.90;;;;;;5003364;28;19926;-74
2022/03/26 07:20:24;;;;;;;;;;;5.40;99.90;;;;;;4992048;28;19996;-74
2022/03/26 07:22:51;;;;;;;;;;;5.50;99.90;;;;;;5008499;28;19929;-74
2022/03/26 07:25:18;;;;;;;;;;;5.60;99.90;;;;;;5008991;28;19925;-74
2022/03/26 07:27:46;;;;;;;;;;;5.70;99.90;;;;;;5009478;28;19925;-74
2022/03/26 07:30:13;;;;;;;;;;;5.90;99.90;;;;;;5009006;28;19941;-74
2022/03/26 07:32:40;;;;;;;;;;;6.00;99.90;;;;;;5009194;28;19926;-74
2022/03/26 07:35:07;;;;;;;;;;;6.20;99.90;;;;;;5008713;28;19933;-74
2022/03/26 07:37:34;;;;;;;;;;;6.30;99.90;;;;;;5009210;28;19930;-74
2022/03/26 07:40:01;;;;;;;;;;;6.50;99.90;;;;;;5024153;28;19933;-73
2022/03/26 07:42:28;;;;;;;;;;;6.60;99.90;;;;;;5025452;28;19930;-73
2022/03/26 07:44:58;;;;;;;;;;;6.70;99.90;;;;;;5002010;28;20320;-76
2022/03/26 07:47:24;;;;;;;;;;;6.70;99.90;;;;;;5016494;28;19973;-75
2022/03/26 07:49:51;;;;;;;;;;;6.80;99.90;;;;;;5002702;28;20389;-74
2022/03/26 07:52:18;;;;;;;;;;;6.90;99.90;;;;;;5007183;28;19930;-76
2022/03/26 07:54:45;;;;;;;;;;;7.00;99.90;;;;;;5009048;28;19926;-76
2022/03/26 07:57:11;;;;;;;;;;;7.20;99.90;;;;;;5009607;28;19930;-75
2022/03/26 07:59:38;;;;;;;;;;;7.30;99.90;;;;;;5010323;28;19980;-77
2022/03/26 08:02:11;;;;;;;;;;;7.40;99.90;;;;;;5005425;28;19949;-73
2022/03/26 08:04:38;;;;;;;;;;;7.60;99.90;;;;;;5009324;28;19977;-73
2022/03/26 08:07:06;;;;;;;;;;;7.80;99.90;;;;;;5008982;28;19926;-74
2022/03/26 08:09:33;;;;;;;;;;;7.90;99.90;;;;;;5008483;28;20337;-73
2022/03/26 08:12:00;;;;;;;;;;;8.00;99.90;;;;;;5004549;28;19926;-74
2022/03/26 08:14:28;;;;;;;;;;;8.20;99.90;;;;;;5005270;28;19937;-74
2022/03/26 08:16:54;;;;;;;;;;;8.30;99.90;;;;;;5005393;28;19926;-74
2022/03/26 08:19:23;;;;;;;;;;;8.40;99.90;;;;;;5004890;28;19926;-74
2022/03/26 08:21:50;;;;;;;;;;;8.60;99.90;;;;;;5005344;28;19933;-73
2022/03/26 08:24:17;;;;;;;;;;;8.70;99.90;;;;;;5005300;28;19937;-74
2022/03/26 08:26:44;;;;;;;;;;;8.90;99.90;;;;;;5005358;28;19932;-75
2022/03/26 08:29:11;;;;;;;;;;;9.00;99.90;;;;;;5005242;28;19926;-74
2022/03/26 08:31:38;;;;;;;;;;;9.20;99.90;;;;;;5004991;28;19926;-75
2022/03/26 08:34:05;;;;;;;;;;;9.30;99.90;;;;;;5005368;28;19956;-77
2022/03/26 08:36:35;;;;;;;;;;;9.40;99.90;;;;;;5004187;28;19934;-74
2022/03/26 08:39:01;;;;;;;;;;;9.60;99.90;;;;;;5007499;28;19929;-74
2022/03/26 08:41:28;;;;;;;;;;;9.80;99.90;;;;;;4991316;28;19933;-75
2022/03/26 08:43:56;;;;;;;;;;;10.00;99.90;;;;;;5004132;28;19926;-75
2022/03/26 08:46:23;;;;;;;;;;;10.20;99.90;;;;;;5008118;28;19976;-74
2022/03/26 08:48:51;;;;;;;;;;;10.30;99.90;;;;;;5004352;28;19926;-73
2022/03/26 08:51:18;;;;;;;;;;;10.40;99.90;;;;;;4990014;28;19934;-74
2022/03/26 08:53:46;;;;;;;;;;;10.50;99.90;;;;;;4991473;28;20365;-73
2022/03/26 08:56:13;;;;;;;;;;;10.60;99.90;;;;;;5007577;28;20009;-75
2022/03/26 08:58:40;;;;;;;;;;;10.70;99.90;;;;;;4991693;28;19980;-74
2022/03/26 09:01:07;;;;;;;;;;;10.80;99.90;;;;;;5007709;28;20012;-73
2022/03/26 09:03:37;;;;;;;;;;;10.90;99.90;;;;;;4991282;28;19936;-74
2022/03/26 09:06:04;;;;;;;;;;;11.00;99.90;;;;;;5007179;28;20369;-74
2022/03/26 09:08:31;;;;;;;;;;;11.10;99.90;;;;;;4998486;28;19926;-74
2022/03/26 09:10:59;;;;;;;;;;;11.20;99.90;;;;;;5007320;28;19929;-74
2022/03/26 09:13:26;;;;;;;;;;;11.30;99.90;;;;;;5007565;28;19925;-73
2022/03/26 09:15:53;;;;;;;;;;;11.50;99.90;;;;;;5007752;28;20033;-73
2022/03/26 09:18:21;;;;;;;;;;;11.50;99.90;;;;;;5007861;28;19926;-73
2022/03/26 09:20:47;;;;;;;;;;;11.60;99.90;;;;;;5007432;28;19925;-74
2022/03/26 09:23:14;;;;;;;;;;;11.80;99.90;;;;;;5007372;28;19926;-73
2022/03/26 09:25:41;;;;;;;;;;;12.00;99.90;;;;;;5000759;28;20401;-74
2022/03/26 09:28:10;;;;;;;;;;;12.10;99.90;;;;;;5014542;28;20313;-73
2022/03/26 09:33:13;;;;;;;;;;;12.40;99.90;;;;;;5023857;28;19926;-76
2022/03/26 09:35:40;;;;;;;;;;;12.50;99.90;;;;;;5026657;28;20016;-76
2022/03/26 09:38:06;;;;;;;;;;;12.60;99.90;;;;;;5010504;28;19926;-76
2022/03/26 09:40:34;;;;;;;;;;;12.70;99.90;;;;;;5010941;28;19925;-77
2022/03/26 09:43:01;;;;;;;;;;;12.90;99.90;;;;;;5028261;28;19987;-78
2022/03/26 09:45:29;;;;;;;;;;;12.90;99.90;;;;;;5011930;28;20020;-77
2022/03/26 09:47:56;;;;;;;;;;;13.10;99.90;;;;;;5027397;28;19929;-76
2022/03/26 09:50:23;;;;;;;;;;;13.20;99.90;;;;;;5009476;28;19975;-76
2022/03/26 09:52:50;;;;;;;;;;;13.30;99.90;;;;;;5026677;28;19926;-77
2022/03/26 09:55:17;;;;;;;;;;;13.50;99.90;;;;;;5026397;28;19929;-76
2022/03/26 09:57:44;;;;;;;;;;;13.60;99.90;;;;;;5009720;28;19937;-76
2022/03/26 10:00:12;;;;;;;;;;;13.80;99.90;;;;;;5026743;28;19932;-77
2022/03/26 10:02:43;;;;;;;;;;;14.00;99.90;;;;;;5009896;28;19929;-77
2022/03/26 10:05:12;;;;;;;;;;;14.20;99.90;;;;;;5011589;28;19979;-77
2022/03/26 10:07:39;;;;;;;;;;;14.50;99.90;;;;;;5011648;28;19929;-78
2022/03/26 10:10:07;;;;;;;;;;;14.60;99.90;;;;;;5012082;28;19933;-78
2022/03/26 10:12:34;;;;;;;;;;;14.80;99.90;;;;;;5010749;28;19926;-77
2022/03/26 10:15:01;;;;;;;;;;;14.90;99.90;;;;;;5010029;28;19925;-77
2022/03/26 10:17:29;;;;;;;;;;;15.00;99.90;;;;;;5010144;28;19936;-78
2022/03/26 10:19:59;;;;;;;;;;;15.20;99.90;;;;;;5010202;28;19925;-77
2022/03/26 10:22:33;;;;;;;;;;;15.40;99.90;;;;;;5013245;28;19930;-78
2022/03/26 10:25:00;;;;;;;;;;;15.60;99.90;;;;;;5012823;28;19926;-78
2022/03/26 10:27:27;;;;;;;;;;;15.80;99.90;;;;;;5013302;28;19925;-78
2022/03/26 10:29:54;;;;;;;;;;;15.80;99.90;;;;;;5012153;28;19929;-76
2022/03/26 10:32:39;;;;;;;;;;;15.90;99.90;;;;;;5010095;28;19933;-77
2022/03/26 10:35:09;;;;;;;;;;;16.00;99.90;;;;;;5009835;28;20361;-77
2022/03/26 10:37:43;;;;;;;;;;;16.10;99.90;;;;;;5009520;28;19957;-77
2022/03/26 10:40:16;;;;;;;;;;;16.30;99.90;;;;;;5021957;28;19929;-78
2022/03/26 10:42:43;;;;;;;;;;;16.50;99.90;;;;;;5028374;28;19984;-78
2022/03/26 10:45:14;;;;;;;;;;;16.70;99.90;;;;;;5010372;28;20344;-76
2022/03/26 10:47:40;;;;;;;;;;;16.80;99.90;;;;;;5009874;28;19925;-77
2022/03/26 10:50:09;;;;;;;;;;;16.90;99.90;;;;;;5010611;28;20500;-77
2022/03/26 10:52:36;;;;;;;;;;;16.90;99.90;;;;;;5026698;28;19929;-78
2022/03/26 10:55:12;;;;;;;;;;;17.00;99.90;;;;;;5030633;28;20474;-78
2022/03/26 10:57:39;;;;;;;;;;;17.20;99.90;;;;;;5008000;28;20142;-78
2022/03/26 11:00:07;;;;;;;;;;;17.50;99.90;;;;;;5012339;28;19925;-77
2022/03/26 11:02:33;;;;;;;;;;;17.60;99.90;;;;;;5010975;28;19946;-77
2022/03/26 11:05:00;;;;;;;;;;;17.80;99.90;;;;;;5009575;28;19999;-78
2022/03/26 11:07:29;;;;;;;;;;;17.90;99.90;;;;;;5009912;28;19972;-77
2022/03/26 11:09:56;;;;;;;;;;;18.00;99.90;;;;;;5010195;28;19961;-78
2022/03/26 11:12:23;;;;;;;;;;;18.20;99.90;;;;;;5027565;28;19930;-77
2022/03/26 11:14:52;;;;;;;;;;;18.50;99.90;;;;;;5011602;28;19926;-77
2022/03/26 11:17:22;;;;;;;;;;;18.60;99.90;;;;;;5015275;28;19976;-79
2022/03/26 11:20:10;;;;;;;;;;;18.70;99.90;;;;;;5013313;28;20044;-78
2022/03/26 11:22:50;;;;;;;;;;;19.00;99.90;;;;;;5025202;28;19984;-79
2022/03/26 11:25:36;;;;;;;;;;;19.20;99.90;;;;;;5015895;28;19925;-78
2022/03/26 11:28:10;;;;;;;;;;;19.40;99.90;;;;;;5015526;28;20305;-77
2022/03/26 11:30:42;;;;;;;;;;;19.60;99.90;;;;;;5015323;28;19979;-78
2022/03/26 11:33:10;;;;;;;;;;;19.70;99.90;;;;;;5007123;28;19925;-79
2022/03/26 11:35:36;;;;;;;;;;;19.70;99.90;;;;;;4998019;28;19926;-79
2022/03/26 11:38:05;;;;;;;;;;;19.80;99.90;;;;;;5000211;28;20393;-80
2022/03/26 11:40:42;;;;;;;;;;;20.10;99.90;;;;;;5035198;28;19929;-79
2022/03/26 11:43:09;;;;;;;;;;;20.40;99.90;;;;;;5016095;28;19929;-80
2022/03/26 11:51:19;;;;;;;;;;;26.80;99.90;;;;;;5033889;28;19921;-79
2022/03/26 11:53:49;;;;;;;;;;;28.70;99.90;;;;;;5034246;28;19926;-79
2022/03/26 11:56:23;;;;;;;;;;;29.70;99.90;;;;;;5033917;28;19933;-79
2022/03/26 11:59:06;;;;;;;;;;;29.90;98.60;;;;;;5016540;28;19933;-78
2022/03/26 12:01:37;;;;;;;;;;;30.50;97.40;;;;;;5017329;28;19925;-79
2022/03/26 12:04:10;;;;;;;;;;;31.30;97.80;;;;;;5033755;28;20041;-79
2022/03/26 12:06:46;;;;;;;;;;;31.70;96.80;;;;;;5017826;28;19925;-79
2022/03/26 12:09:29;;;;;;;;;;;32.60;96.00;;;;;;5017515;28;19925;-79
2022/03/26 12:12:15;;;;;;;;;;;33.00;94.70;;;;;;5033918;28;19932;-79
2022/03/26 12:14:56;;;;;;;;;;;32.20;94.10;;;;;;5016759;28;19926;-79
2022/03/26 12:17:38;;;;;;;;;;;32.40;93.90;;;;;;5016774;28;19952;-79
2022/03/26 12:20:18;;;;;;;;;;;32.50;93.70;;;;;;5017529;28;20447;-79
2022/03/26 12:22:45;;;;;;;;;;;32.00;93.30;;;;;;5016920;28;20451;-79
2022/03/26 12:25:16;;;;;;;;;;;32.00;93.30;;;;;;5016125;28;19925;-79
2022/03/26 12:27:43;;;;;;;;;;;31.40;93.10;;;;;;5018552;28;19984;-79
2022/03/26 12:30:11;;;;;;;;;;;31.10;93.00;;;;;;5017937;28;20019;-79
2022/03/26 12:32:38;;;;;;;;;;;30.90;93.20;;;;;;5016958;28;19925;-79
2022/03/26 12:35:06;;;;;;;;;;;31.00;92.90;;;;;;5016428;28;19988;-79
2022/03/26 12:37:33;;;;;;;;;;;31.60;93.60;;;;;;5015913;28;20000;-79
2022/03/26 12:40:01;;;;;;;;;;;32.10;93.10;;;;;;4999224;28;20154;-80
2022/03/26 12:42:29;;;;;;;;;;;31.90;92.30;;;;;;5002034;28;19933;-80
2022/03/26 12:44:55;;;;;;;;;;;32.00;92.20;;;;;;5016214;28;20401;-79
2022/03/26 12:47:23;;;;;;;;;;;31.20;92.30;;;;;;5017372;28;19948;-80
2022/03/26 12:49:50;;;;;;;;;;;30.70;92.80;;;;;;5032043;28;20024;-79
2022/03/26 12:52:17;;;;;;;;;;;30.00;92.30;;;;;;5016671;28;20380;-79
2022/03/26 12:54:44;;;;;;;;;;;30.40;92.70;;;;;;5016128;28;20017;-79
2022/03/26 12:57:11;;;;;;;;;;;30.90;92.20;;;;;;5033572;28;19930;-79
2022/03/26 12:59:38;;;;;;;;;;;30.50;92.40;;;;;;5017014;28;19956;-80
2022/03/26 13:02:08;;;;;;;;;;;29.80;92.10;;;;;;5015956;28;19932;-79
2022/03/26 13:04:37;;;;;;;;;;;29.70;92.20;;;;;;5014855;28;19929;-79
2022/03/26 13:07:04;;;;;;;;;;;29.00;91.90;;;;;;5016596;28;19930;-79
2022/03/26 13:09:31;;;;;;;;;;;29.10;91.90;;;;;;5015565;28;19952;-79
2022/03/26 13:11:58;;;;;;;;;;;29.20;91.80;;;;;;5015751;28;19926;-79
2022/03/26 13:14:25;;;;;;;;;;;29.80;91.80;;;;;;5014686;28;20282;-79
2022/03/26 13:16:53;;;;;;;;;;;29.60;91.70;;;;;;5009476;28;19960;-79
2022/03/26 13:19:20;;;;;;;;;;;29.90;92.10;;;;;;4996839;28;20172;-79
2022/03/26 13:21:48;;;;;;;;;;;29.30;91.50;;;;;;4997477;28;19929;-79
2022/03/26 13:24:16;;;;;;;;;;;29.10;91.40;;;;;;4997545;28;19992;-80
2022/03/26 13:26:43;;;;;;;;;;;29.20;91.30;;;;;;5006516;28;19925;-81
2022/03/26 13:29:11;;;;;;;;;;;28.80;91.50;;;;;;5033234;28;20127;-80
2022/03/26 13:31:41;;;;;;;;;;;28.60;92.00;;;;;;5016894;28;19987;-80
2022/03/26 13:34:13;;;;;;;;;;;28.70;91.70;;;;;;5017318;28;20348;-80
2022/03/26 13:36:40;;;;;;;;;;;29.10;91.40;;;;;;5016500;28;19930;-80
2022/03/26 13:39:17;;;;;;;;;;;29.50;90.80;;;;;;5006406;28;19926;-80
2022/03/26 13:41:44;;;;;;;;;;;29.50;90.40;;;;;;4998168;28;19926;-80
2022/03/26 13:44:11;;;;;;;;;;;28.90;90.50;;;;;;4996991;28;19984;-80
2022/03/26 13:46:38;;;;;;;;;;;29.00;90.40;;;;;;4997564;28;20301;-80
2022/03/26 13:49:04;;;;;;;;;;;28.90;90.80;;;;;;4997191;28;19925;-80
2022/03/26 13:51:33;;;;;;;;;;;29.40;90.70;;;;;;4997516;28;19984;-79
2022/03/26 13:54:01;;;;;;;;;;;29.00;90.40;;;;;;4997697;28;19925;-80
2022/03/26 13:56:28;;;;;;;;;;;29.40;90.60;;;;;;4999117;28;20341;-80
2022/03/26 13:58:55;;;;;;;;;;;29.20;90.30;;;;;;5012933;28;19925;-80
2022/03/26 14:01:22;;;;;;;;;;;29.10;90.40;;;;;;5026608;28;20393;-80
2022/03/26 14:03:53;;;;;;;;;;;28.40;90.30;;;;;;5030885;28;19945;-80
2022/03/26 14:06:20;;;;;;;;;;;27.80;90.20;;;;;;5030769;28;19957;-80
2022/03/26 14:08:51;;;;;;;;;;;27.90;90.60;;;;;;5030586;28;19909;-79
2022/03/26 14:11:18;;;;;;;;;;;28.00;90.50;;;;;;5030865;28;19925;-80
2022/03/26 14:13:46;;;;;;;;;;;28.10;90.50;;;;;;5031998;28;19921;-79
2022/03/26 14:16:13;;;;;;;;;;;27.70;90.40;;;;;;5030307;28;19925;-80
2022/03/26 14:18:40;;;;;;;;;;;27.60;90.40;;;;;;5029068;28;19997;-80
2022/03/26 14:21:07;;;;;;;;;;;28.00;90.30;;;;;;5046303;28;19952;-81
2022/03/26 14:23:33;;;;;;;;;;;28.50;90.50;;;;;;5045342;28;19925;-80
2022/03/26 14:26:02;;;;;;;;;;;28.80;90.60;;;;;;5045739;28;20397;-81
2022/03/26 14:28:29;;;;;;;;;;;29.00;90.10;;;;;;5032563;28;19933;-81
2022/03/26 14:30:56;;;;;;;;;;;28.80;90.30;;;;;;5029421;28;19932;-82
2022/03/26 14:33:23;;;;;;;;;;;28.60;90.60;;;;;;5032309;28;19926;-82
2022/03/26 14:35:50;;;;;;;;;;;28.30;91.10;;;;;;5015555;28;19926;-82